createdAt,value
2019-04-26T00:02:24.443Z,41.5
2019-04-26T00:07:29.869Z,41.6
2019-04-26T00:12:34.852Z,41.7
2019-04-26T00:17:39.942Z,41.7
2019-04-26T00:22:45.218Z,41.7
2019-04-26T00:27:49.547Z,41.6
2019-04-26T00:32:54.423Z,41.6
2019-04-26T00:37:59.030Z,41.6
2019-04-26T00:43:04.476Z,41.6
2019-04-26T00:48:09.365Z,41.5
2019-04-26T00:53:19.590Z,41.5
2019-04-26T00:58:25.660Z,41.5
2019-04-26T01:03:30.543Z,41.5
2019-04-26T01:08:35.996Z,42
2019-04-26T01:13:41.339Z,41.9
2019-04-26T01:18:46.212Z,42
2019-04-26T01:23:50.819Z,41.8
2019-04-26T01:28:55.137Z,41.6
2019-04-26T01:34:00.780Z,41.6
2019-04-26T01:39:05.378Z,41.6
2019-04-26T01:44:10.537Z,41.6
2019-04-26T01:49:15.412Z,41.7
2019-04-26T01:54:19.742Z,41.8
2019-04-26T01:59:29.464Z,41.7
2019-04-26T02:04:34.531Z,41.8
2019-04-26T02:09:39.086Z,41.8
2019-04-26T02:14:43.679Z,41.9
2019-04-26T02:19:48.830Z,42.1
2019-04-26T02:24:53.908Z,42.5
2019-04-26T02:29:59.620Z,42.3
2019-04-26T02:35:05.052Z,42.1
2019-04-26T02:40:10.483Z,42
2019-04-26T02:45:15.637Z,42.1
2019-04-26T02:50:20.786Z,42.3
2019-04-26T02:55:27.869Z,42.4
2019-04-26T03:00:40.076Z,42.4
2019-04-26T03:05:45.492Z,42.6
2019-04-26T03:10:49.806Z,42.6
2019-04-26T03:15:54.391Z,42.7
2019-04-26T03:20:59.538Z,42.9
2019-04-26T03:26:04.966Z,43.1
2019-04-26T03:31:10.113Z,43.2
2019-04-26T03:36:15.002Z,43.4
2019-04-26T03:41:20.149Z,43.4
2019-04-26T03:46:25.560Z,43.8
2019-04-26T03:51:30.986Z,43.8
2019-04-26T03:56:45.377Z,43.7
2019-04-26T04:01:50.460Z,43.8
2019-04-26T04:07:06.770Z,43.8
2019-04-26T04:12:14.542Z,44
2019-04-26T04:17:19.681Z,44.3
2019-04-26T04:22:24.301Z,44.6
2019-04-26T04:27:29.687Z,44.8
2019-04-26T04:32:35.107Z,45
2019-04-26T04:38:11.312Z,45.2
2019-04-26T04:43:16.211Z,45.3
2019-04-26T04:48:21.592Z,45.3
2019-04-26T04:53:27.224Z,45.6
2019-04-26T04:58:32.651Z,45.8
2019-04-26T05:03:37.514Z,46.2
2019-04-26T05:08:42.875Z,46.5
2019-04-26T05:13:51.883Z,47.4
2019-04-26T05:18:56.796Z,47.1
2019-04-26T05:24:01.666Z,46.5
2019-04-26T05:29:06.252Z,46.3
2019-04-26T05:34:11.123Z,46.3
2019-04-26T05:39:15.715Z,46.4
2019-04-26T05:44:20.590Z,46.5
2019-04-26T05:49:25.740Z,46.7
2019-04-26T05:54:30.600Z,46.9
2019-04-26T05:59:36.233Z,47.2
2019-04-26T06:04:41.662Z,47.4
2019-04-26T06:09:46.526Z,47.5
2019-04-26T06:14:56.739Z,47.8
2019-04-26T06:20:03.021Z,47.9
2019-04-26T06:25:08.442Z,48.2
2019-04-26T06:30:13.584Z,48.3
2019-04-26T06:35:20.988Z,48.5
2019-04-26T06:40:26.135Z,49.4
2019-04-26T06:45:30.726Z,49.2
2019-04-26T06:50:35.599Z,49.2
2019-04-26T06:55:40.939Z,51.4
2019-04-26T07:00:45.528Z,52.8
2019-04-26T07:05:50.674Z,53.6
2019-04-26T07:10:55.842Z,54.5
2019-04-26T07:16:23.455Z,54.3
2019-04-26T07:21:27.870Z,54.1
2019-04-26T07:26:32.187Z,54.3
2019-04-26T07:31:52.263Z,53.6
2019-04-26T07:36:57.140Z,52.9
2019-04-26T07:42:05.403Z,52.4
2019-04-26T07:47:14.175Z,51.5
2019-04-26T07:52:20.021Z,50.9
2019-04-26T07:57:24.633Z,50.3
2019-04-26T08:02:44.080Z,49.9
2019-04-26T08:07:48.975Z,49
2019-04-26T08:12:54.583Z,47.8
2019-04-26T08:17:59.605Z,47.2
2019-04-26T08:23:43.210Z,46.6
2019-04-26T08:28:48.642Z,46.1
2019-04-26T08:33:53.303Z,45.5
2019-04-26T08:38:58.361Z,44.9
2019-04-26T08:44:11.218Z,44.3
2019-04-26T08:49:16.152Z,43.7
2019-04-26T08:54:21.859Z,42.9
2019-04-26T08:59:26.495Z,42.6
2019-04-26T09:04:31.319Z,42.7
2019-04-26T09:09:35.731Z,42.3
2019-04-26T09:14:40.552Z,42.1
2019-04-26T09:19:45.511Z,41.8
2019-04-26T09:24:50.967Z,41.5
2019-04-26T09:30:07.335Z,41.6
2019-04-26T09:35:17.553Z,41.4
2019-04-26T09:40:24.998Z,41.3
2019-04-26T09:45:29.899Z,41.2
2019-04-26T09:50:33.968Z,41
2019-04-26T09:55:38.874Z,40.7
2019-04-26T10:00:51.193Z,40.5
2019-04-26T10:05:58.608Z,39.8
2019-04-26T10:11:10.852Z,39.6
2019-04-26T10:16:15.925Z,39.4
2019-04-26T10:21:20.554Z,38.9
2019-04-26T10:26:31.759Z,38.7
2019-04-26T10:31:36.967Z,38.4
2019-04-26T10:36:41.891Z,38.4
2019-04-26T10:41:47.353Z,38.2
2019-04-26T10:47:06.596Z,37.4
2019-04-26T10:52:17.957Z,37.5
2019-04-26T10:57:37.226Z,37.5
2019-04-26T11:02:42.140Z,37.7
2019-04-26T11:08:01.684Z,37.6
2019-04-26T11:13:07.156Z,37.7
2019-04-26T11:18:12.341Z,37.9
2019-04-26T11:23:17.251Z,38.1
2019-04-26T11:28:23.992Z,38.7
2019-04-26T11:33:28.693Z,38.9
2019-04-26T11:38:34.793Z,38.7
2019-04-26T11:43:39.680Z,38.8
2019-04-26T11:48:45.151Z,38.9
2019-04-26T11:53:49.783Z,38.8
2019-04-26T11:58:59.393Z,38.9
2019-04-26T12:04:07.109Z,39
2019-04-26T12:09:12.018Z,38.8
2019-04-26T12:14:23.143Z,38.6
2019-04-26T12:19:28.317Z,38.4
2019-04-26T12:24:36.378Z,37.9
2019-04-26T12:29:48.149Z,37.2
2019-04-26T12:34:53.341Z,36.6
2019-04-26T12:39:58.245Z,36.8
2019-04-26T12:45:03.145Z,36.1
2019-04-26T12:50:08.100Z,36.1
2019-04-26T12:55:21.391Z,36.3
2019-04-26T13:00:26.299Z,36.5
2019-04-26T13:05:31.484Z,36.3
2019-04-26T13:10:38.216Z,36.4
2019-04-26T13:15:50.280Z,36.8
2019-04-26T13:21:04.327Z,36.6
2019-04-26T13:26:09.187Z,37.2
2019-04-26T13:31:14.098Z,37
2019-04-26T13:36:19.003Z,37.2
2019-04-26T13:41:23.347Z,37.3
2019-04-26T13:46:28.813Z,37.5
2019-04-26T13:51:33.729Z,37.6
2019-04-26T13:56:39.672Z,37.8
2019-04-26T14:01:44.038Z,37.9
2019-04-26T14:06:48.926Z,38
2019-04-26T14:11:53.897Z,38.1
2019-04-26T14:16:59.620Z,38.5
2019-04-26T14:22:09.263Z,38.8
2019-04-26T14:27:17.914Z,38.6
2019-04-26T14:32:25.685Z,38.5
2019-04-26T14:37:31.197Z,38.4
2019-04-26T14:42:50.320Z,38.5
2019-04-26T14:47:55.497Z,38.5
2019-04-26T14:53:05.229Z,38.5
2019-04-26T14:58:10.127Z,38.6
2019-04-26T15:03:24.892Z,38.9
2019-04-26T15:08:31.962Z,39
2019-04-26T15:13:45.201Z,39.2
2019-04-26T15:18:50.136Z,39.7
2019-04-26T15:24:02.815Z,39.7
2019-04-26T15:29:09.208Z,39.5
2019-04-26T15:34:14.180Z,39.7
2019-04-26T15:39:25.032Z,39.6
2019-04-26T15:44:32.279Z,39.6
2019-04-26T15:49:39.213Z,39.7
2019-04-26T15:54:44.217Z,39.8
2019-04-26T15:59:49.106Z,40
2019-04-26T16:04:57.143Z,40.2
2019-04-26T16:10:02.027Z,40.4
2019-04-26T16:15:16.344Z,40.7
2019-04-26T16:20:22.307Z,40.7
2019-04-26T16:25:26.648Z,40.6
2019-04-26T16:30:39.056Z,40.5
2019-04-26T16:35:44.353Z,40.5
2019-04-26T16:40:56.548Z,40.8
2019-04-26T16:46:03.177Z,40.8
2019-04-26T16:54:10.907Z,40.9
2019-04-26T16:59:28.519Z,41
2019-04-26T17:04:37.848Z,41.1
2019-04-26T17:10:01.166Z,41.3
2019-04-26T17:15:08.850Z,41.5
2019-04-26T17:20:13.396Z,41.7
2019-04-26T17:25:27.832Z,42.1
2019-04-26T17:30:45.811Z,42.5
2019-04-26T17:35:50.134Z,43
2019-04-26T17:40:55.578Z,43.4
2019-04-26T17:46:02.251Z,43.6
2019-04-26T17:51:23.731Z,44
2019-04-26T17:56:53.645Z,44.3
2019-04-26T18:02:03.060Z,44.7
2019-04-26T18:08:19.209Z,45.2
2019-04-26T18:13:52.332Z,45.9
2019-04-26T18:18:58.400Z,46.3
2019-04-26T18:24:04.852Z,46.7
2019-04-26T18:29:09.721Z,47.3
2019-04-26T18:34:15.430Z,47.5
2019-04-26T18:39:30.704Z,47.7
2019-04-26T18:44:49.739Z,48
2019-04-26T18:50:00.644Z,48.2
2019-04-26T18:55:07.504Z,47.9
2019-04-26T19:00:14.338Z,48.2
2019-04-26T19:05:31.276Z,48.2
2019-04-26T19:10:37.801Z,48.5
2019-04-26T19:15:43.611Z,48.7
2019-04-26T19:20:48.489Z,49
2019-04-26T19:25:54.007Z,49.3
2019-04-26T19:30:59.151Z,49.7
2019-04-26T19:36:04.574Z,50.1
2019-04-26T19:41:09.435Z,50.4
2019-04-26T19:46:25.848Z,50.5
2019-04-26T19:51:31.277Z,50.6
2019-04-26T19:56:36.418Z,50.6
2019-04-26T20:01:43.995Z,50.7
2019-04-26T20:06:56.328Z,50.6
2019-04-26T20:12:04.085Z,50.4
2019-04-26T20:17:21.375Z,50.6
2019-04-26T20:22:33.456Z,50.8
2019-04-26T20:27:38.704Z,51.6
2019-04-26T20:32:47.002Z,51.4
2019-04-26T20:38:04.822Z,51.6
2019-04-26T20:44:07.481Z,51.8
2019-04-26T20:49:15.162Z,51.9
2019-04-26T20:54:20.339Z,51.6
2019-04-26T20:59:26.608Z,51.6
2019-04-26T21:04:46.215Z,51.4
2019-04-26T21:09:51.243Z,51.3
2019-04-26T21:14:56.868Z,51.3
2019-04-26T21:20:03.284Z,51.2
2019-04-26T21:25:08.985Z,51.4
2019-04-26T21:30:16.329Z,51.6
2019-04-26T21:35:29.559Z,51.6
2019-04-26T21:40:35.882Z,51.7
2019-04-26T21:45:41.032Z,51.8
2019-04-26T21:50:46.989Z,51.9
2019-04-26T21:55:52.134Z,51.8
2019-04-26T22:00:59.014Z,52.6
2019-04-26T22:06:05.954Z,52.3
2019-04-26T22:11:20.971Z,52.2
2019-04-26T22:16:40.016Z,52
2019-04-26T22:21:46.052Z,51.6
2019-04-26T22:26:53.121Z,51.6
2019-04-26T22:31:57.885Z,51.6
2019-04-26T22:37:30.319Z,51.6
2019-04-26T22:42:45.518Z,51.7
2019-04-26T22:47:50.377Z,51.8
2019-04-26T22:52:56.974Z,52
2019-04-26T22:58:20.458Z,52.2
2019-04-26T23:03:31.933Z,52.4
2019-04-26T23:08:40.944Z,52.4
2019-04-26T23:13:47.105Z,52.5
2019-04-26T23:18:54.188Z,52.5
2019-04-26T23:23:59.329Z,52.6
2019-04-26T23:29:18.967Z,52.6
2019-04-26T23:34:53.810Z,52.5
2019-04-26T23:40:05.061Z,53.2
2019-04-26T23:45:15.858Z,52.7
2019-04-26T23:50:21.004Z,52.2
